Time;durP1;ratioP1;P1;durP2;ratioP2;P2;SDS_P1;SDS_P2;PMS_P1;PMS_P2;Temp;Humidity;BMP_temperature;BMP_pressure;BME280_temperature;BME280_humidity;BME280_pressure;Samples;Min_cycle;Max_cycle;Signal;HPM_P1;HPM_P2
2021/10/31 00:00:32;;;;;;;;;39.33;30.00;;;;;;;;4941407;28;111883;-68
2021/10/31 00:02:58;;;;;;;;;39.67;34.00;;;;;;;;4939818;28;112570;-69
2021/10/31 00:05:25;;;;;;;;;34.25;32.25;;;;;;;;4945001;28;112220;-70
2021/10/31 00:07:50;;;;;;;;;43.00;32.67;;;;;;;;4940852;28;112800;-68
2021/10/31 00:10:16;;;;;;;;;32.75;30.75;;;;;;;;4941090;28;112192;-69
2021/10/31 00:12:42;;;;;;;;;38.50;32.25;;;;;;;;4941417;28;112308;-68
2021/10/31 00:15:08;;;;;;;;;41.50;33.75;;;;;;;;4940563;28;112528;-69
2021/10/31 00:17:33;;;;;;;;;30.00;28.75;;;;;;;;4940733;28;111800;-69
2021/10/31 00:19:58;;;;;;;;;33.50;29.25;;;;;;;;4940330;28;113052;-69
2021/10/31 00:22:24;;;;;;;;;40.25;34.00;;;;;;;;4940071;28;112878;-69
2021/10/31 00:24:50;;;;;;;;;35.25;29.50;;;;;;;;4941427;28;111885;-69
2021/10/31 00:27:15;;;;;;;;;40.75;29.25;;;;;;;;4943719;28;112389;-69
2021/10/31 00:29:41;;;;;;;;;40.75;31.25;;;;;;;;4923593;28;112865;-69
2021/10/31 00:32:06;;;;;;;;;35.25;33.75;;;;;;;;4940915;28;111882;-70
2021/10/31 00:34:32;;;;;;;;;39.50;32.75;;;;;;;;4922285;28;115527;-68
2021/10/31 00:36:58;;;;;;;;;40.25;33.50;;;;;;;;4940737;28;112249;-69
2021/10/31 00:39:23;;;;;;;;;33.75;27.50;;;;;;;;4940228;28;112364;-69
2021/10/31 00:41:48;;;;;;;;;36.00;33.00;;;;;;;;4939894;28;112714;-69
2021/10/31 00:44:13;;;;;;;;;31.25;27.00;;;;;;;;4940665;28;112160;-68
2021/10/31 00:46:39;;;;;;;;;40.75;32.75;;;;;;;;4940465;28;112387;-70
2021/10/31 00:49:04;;;;;;;;;38.50;30.25;;;;;;;;4943147;28;111913;-69
2021/10/31 00:51:30;;;;;;;;;33.25;29.25;;;;;;;;4940796;28;112299;-69
2021/10/31 00:53:56;;;;;;;;;37.50;31.75;;;;;;;;4939890;28;113210;-70
2021/10/31 00:56:25;;;;;;;;;42.67;38.67;;;;;;;;4922995;28;111878;-69
2021/10/31 00:58:50;;;;;;;;;35.75;30.50;;;;;;;;4940954;28;112293;-69
2021/10/31 01:01:16;;;;;;;;;33.25;31.75;;;;;;;;4939665;28;112547;-69
2021/10/31 01:03:42;;;;;;;;;40.25;33.50;;;;;;;;4940726;28;112170;-69
2021/10/31 01:06:13;;;;;;;;;34.25;30.00;;;;;;;;4940157;28;112003;-70
2021/10/31 01:08:49;;;;;;;;;41.25;32.50;;;;;;;;4943443;28;113089;-68
2021/10/31 01:11:26;;;;;;;;;34.00;30.50;;;;;;;;4940654;28;113193;-68
2021/10/31 01:14:14;;;;;;;;;36.00;32.00;;;;;;;;4939680;28;112566;-69
2021/10/31 01:16:52;;;;;;;;;35.00;32.33;;;;;;;;4903446;28;112309;-69
2021/10/31 01:19:17;;;;;;;;;31.25;28.00;;;;;;;;4939832;28;114272;-69
2021/10/31 01:22:01;;;;;;;;;35.00;27.50;;;;;;;;4939004;28;113018;-69
2021/10/31 01:24:45;;;;;;;;;30.00;25.75;;;;;;;;4939959;28;111876;-69
2021/10/31 01:27:13;;;;;;;;;30.75;27.50;;;;;;;;4939952;28;112569;-70
2021/10/31 01:29:47;;;;;;;;;37.50;32.25;;;;;;;;4939330;28;113698;-69
2021/10/31 01:32:32;;;;;;;;;37.00;34.75;;;;;;;;4943444;28;112005;-70
2021/10/31 01:35:14;;;;;;;;;30.25;27.25;;;;;;;;4938555;28;112902;-68
2021/10/31 01:37:49;;;;;;;;;30.50;28.75;;;;;;;;4940013;28;111760;-69
2021/10/31 01:40:17;;;;;;;;;39.00;31.75;;;;;;;;4940043;28;112455;-69
2021/10/31 01:42:42;;;;;;;;;34.50;28.75;;;;;;;;4937965;28;114134;-69
2021/10/31 01:45:14;;;;;;;;;34.00;31.50;;;;;;;;4939302;28;111882;-69
2021/10/31 01:47:54;;;;;;;;;33.75;29.50;;;;;;;;4939662;28;112962;-69
2021/10/31 01:50:34;;;;;;;;;31.75;27.25;;;;;;;;4939420;28;112512;-69
2021/10/31 01:53:05;;;;;;;;;25.25;18.75;;;;;;;;4939945;28;112008;-68
2021/10/31 01:55:40;;;;;;;;;36.75;32.75;;;;;;;;4942978;28;112241;-68
2021/10/31 01:58:06;;;;;;;;;38.75;29.50;;;;;;;;4938556;28;112093;-68
2021/10/31 02:00:32;;;;;;;;;34.00;30.00;;;;;;;;4939660;28;113550;-69
2021/10/31 02:03:02;;;;;;;;;35.00;28.00;;;;;;;;4921661;28;113731;-69
2021/10/31 02:05:29;;;;;;;;;29.75;26.00;;;;;;;;4939730;28;112161;-69
2021/10/31 02:07:56;;;;;;;;;39.00;31.33;;;;;;;;4939527;28;112213;-69
2021/10/31 02:10:23;;;;;;;;;37.25;32.75;;;;;;;;4935499;28;113584;-69
2021/10/31 02:12:48;;;;;;;;;31.50;29.75;;;;;;;;4939780;28;111875;-69
2021/10/31 02:15:15;;;;;;;;;38.75;32.00;;;;;;;;4939780;28;112457;-68
2021/10/31 02:17:41;;;;;;;;;28.00;25.25;;;;;;;;4942200;28;112470;-70
2021/10/31 02:20:07;;;;;;;;;29.50;29.50;;;;;;;;4938926;28;112559;-69
2021/10/31 02:22:33;;;;;;;;;24.75;21.00;;;;;;;;4937976;28;111831;-70
2021/10/31 02:25:02;;;;;;;;;31.50;25.00;;;;;;;;4939834;28;111761;-69
2021/10/31 02:27:30;;;;;;;;;30.75;26.00;;;;;;;;4939784;28;112749;-69
2021/10/31 02:29:56;;;;;;;;;30.75;25.25;;;;;;;;4938301;28;112803;-68
2021/10/31 02:32:23;;;;;;;;;33.50;25.25;;;;;;;;4938589;28;112007;-69
2021/10/31 02:34:52;;;;;;;;;23.25;23.25;;;;;;;;4939907;28;112286;-69
2021/10/31 02:37:18;;;;;;;;;35.75;31.00;;;;;;;;4938597;28;113653;-70
2021/10/31 02:39:44;;;;;;;;;24.00;22.00;;;;;;;;4942913;28;111974;-70
2021/10/31 02:42:09;;;;;;;;;35.00;30.75;;;;;;;;4938630;28;112496;-69
2021/10/31 02:44:34;;;;;;;;;29.50;23.00;;;;;;;;4939273;28;111730;-70
2021/10/31 02:47:00;;;;;;;;;28.67;28.33;;;;;;;;4921671;28;114187;-69
2021/10/31 02:49:26;;;;;;;;;30.00;22.50;;;;;;;;4938147;28;112656;-70
2021/10/31 02:51:57;;;;;;;;;31.00;27.33;;;;;;;;4938979;28;111948;-68
2021/10/31 02:54:29;;;;;;;;;26.00;25.00;;;;;;;;4939321;28;112153;-69
2021/10/31 02:57:20;;;;;;;;;33.00;26.75;;;;;;;;4937923;28;112699;-69
2021/10/31 02:59:57;;;;;;;;;35.00;26.67;;;;;;;;4902316;28;112425;-70
2021/10/31 03:02:25;;;;;;;;;33.50;25.75;;;;;;;;4938347;28;114549;-70
2021/10/31 03:04:51;;;;;;;;;28.00;27.00;;;;;;;;4939169;28;112262;-69
2021/10/31 03:07:16;;;;;;;;;28.25;26.75;;;;;;;;4932207;28;112480;-69
2021/10/31 03:09:45;;;;;;;;;33.67;25.00;;;;;;;;4921326;28;115737;-70
2021/10/31 03:12:11;;;;;;;;;26.67;21.67;;;;;;;;4941886;28;111760;-69
2021/10/31 03:14:36;;;;;;;;;26.33;24.67;;;;;;;;4924280;28;113397;-69
2021/10/31 03:17:02;;;;;;;;;31.67;28.00;;;;;;;;4941298;28;112777;-69
2021/10/31 03:19:28;;;;;;;;;31.67;29.33;;;;;;;;4941890;28;111905;-69
2021/10/31 03:21:53;;;;;;;;;33.00;27.67;;;;;;;;4945017;28;112814;-69
2021/10/31 03:24:19;;;;;;;;;28.67;22.00;;;;;;;;4942075;28;111818;-69
2021/10/31 03:26:44;;;;;;;;;34.00;25.67;;;;;;;;4938022;28;112461;-69
2021/10/31 03:29:09;;;;;;;;;27.67;25.00;;;;;;;;4923328;28;116179;-69
2021/10/31 03:31:35;;;;;;;;;29.00;25.00;;;;;;;;4941992;28;111878;-69
2021/10/31 03:34:00;;;;;;;;;31.00;27.00;;;;;;;;4941820;28;112392;-69
2021/10/31 03:36:25;;;;;;;;;27.33;23.33;;;;;;;;4937437;28;112615;-68
2021/10/31 03:38:51;;;;;;;;;26.67;24.67;;;;;;;;4941479;28;111881;-68
2021/10/31 03:41:16;;;;;;;;;27.33;24.00;;;;;;;;4941526;28;112494;-69
2021/10/31 03:43:41;;;;;;;;;28.00;24.00;;;;;;;;4945016;28;112580;-68
2021/10/31 03:46:07;;;;;;;;;33.00;26.33;;;;;;;;4941963;28;111998;-69
2021/10/31 03:48:32;;;;;;;;;25.00;24.00;;;;;;;;4941007;28;113024;-70
2021/10/31 03:50:57;;;;;;;;;32.00;24.00;;;;;;;;4940377;28;112164;-70
2021/10/31 03:53:23;;;;;;;;;28.00;24.33;;;;;;;;4924185;28;115130;-69
2021/10/31 03:55:48;;;;;;;;;29.75;24.50;;;;;;;;4940862;28;112455;-68
2021/10/31 03:58:13;;;;;;;;;28.25;23.00;;;;;;;;4941900;28;112056;-69
2021/10/31 04:00:39;;;;;;;;;30.50;26.25;;;;;;;;4941536;28;111973;-69
2021/10/31 04:03:04;;;;;;;;;25.25;19.50;;;;;;;;4940973;28;112379;-69
2021/10/31 04:05:30;;;;;;;;;25.67;21.67;;;;;;;;4945279;28;111653;-70
2021/10/31 04:07:55;;;;;;;;;28.67;21.33;;;;;;;;4940417;28;112861;-70
2021/10/31 04:10:20;;;;;;;;;18.00;17.67;;;;;;;;4940914;28;111983;-68
2021/10/31 04:12:50;;;;;;;;;28.00;24.00;;;;;;;;4941406;28;113232;-69
2021/10/31 04:15:15;;;;;;;;;30.67;24.00;;;;;;;;4940152;28;112985;-70
2021/10/31 04:17:40;;;;;;;;;30.67;28.33;;;;;;;;4940640;28;112033;-71
2021/10/31 04:20:07;;;;;;;;;28.67;25.00;;;;;;;;4941888;28;111970;-69
2021/10/31 04:22:32;;;;;;;;;25.00;24.67;;;;;;;;4939776;28;112953;-68
2021/10/31 04:24:58;;;;;;;;;28.33;24.67;;;;;;;;4941177;28;111748;-68
2021/10/31 04:27:23;;;;;;;;;24.33;21.00;;;;;;;;4944023;28;112690;-68
2021/10/31 04:29:49;;;;;;;;;29.33;23.00;;;;;;;;4922888;28;112262;-69
2021/10/31 04:32:14;;;;;;;;;26.00;24.00;;;;;;;;4940682;28;112112;-69
2021/10/31 04:34:39;;;;;;;;;27.33;21.00;;;;;;;;4939335;28;112440;-68
2021/10/31 04:37:05;;;;;;;;;26.00;23.33;;;;;;;;4940405;28;111689;-67
2021/10/31 04:39:30;;;;;;;;;27.67;24.00;;;;;;;;4940761;28;112362;-69
2021/10/31 04:42:03;;;;;;;;;27.67;23.00;;;;;;;;4940243;28;112375;-69
2021/10/31 04:44:28;;;;;;;;;22.33;22.33;;;;;;;;4940728;28;112078;-68
2021/10/31 04:46:54;;;;;;;;;27.67;24.67;;;;;;;;4940623;28;112708;-68
2021/10/31 04:49:19;;;;;;;;;28.67;21.67;;;;;;;;4943016;28;113547;-69
2021/10/31 04:51:44;;;;;;;;;31.67;26.33;;;;;;;;4940797;28;112368;-68
2021/10/31 04:54:09;;;;;;;;;34.00;26.67;;;;;;;;4939549;28;112856;-74
2021/10/31 04:56:35;;;;;;;;;25.33;22.00;;;;;;;;4923196;28;113596;-74
2021/10/31 04:59:00;;;;;;;;;32.33;23.00;;;;;;;;4940554;28;111960;-73
2021/10/31 05:01:25;;;;;;;;;30.00;24.00;;;;;;;;4940094;28;113050;-73
2021/10/31 05:03:51;;;;;;;;;29.00;24.67;;;;;;;;4941006;28;111888;-72
2021/10/31 05:06:16;;;;;;;;;26.00;24.00;;;;;;;;4923384;28;112113;-71
2021/10/31 05:08:41;;;;;;;;;30.67;24.00;;;;;;;;4945381;28;112485;-71
2021/10/31 05:11:07;;;;;;;;;29.67;26.33;;;;;;;;4940644;28;112166;-71
2021/10/31 05:13:33;;;;;;;;;28.00;21.00;;;;;;;;4921470;28;115609;-70
2021/10/31 05:15:59;;;;;;;;;33.67;29.33;;;;;;;;4928093;28;111877;-70
2021/10/31 05:18:24;;;;;;;;;28.67;24.00;;;;;;;;4902525;28;114886;-69
2021/10/31 05:20:49;;;;;;;;;23.67;20.00;;;;;;;;4919640;28;112732;-71
2021/10/31 05:23:15;;;;;;;;;29.33;25.33;;;;;;;;4920798;28;113140;-70
2021/10/31 05:25:40;;;;;;;;;33.67;25.33;;;;;;;;4921138;28;112272;-70
2021/10/31 05:28:06;;;;;;;;;30.33;24.00;;;;;;;;4919831;28;112506;-69
2021/10/31 05:30:31;;;;;;;;;26.33;24.00;;;;;;;;4922054;28;111994;-69
2021/10/31 05:32:56;;;;;;;;;35.33;22.33;;;;;;;;4908033;28;112909;-70
2021/10/31 05:35:22;;;;;;;;;26.67;24.00;;;;;;;;4920474;28;111822;-70
2021/10/31 05:37:54;;;;;;;;;24.00;21.00;;;;;;;;4920291;28;113254;-73
2021/10/31 05:40:19;;;;;;;;;26.67;20.67;;;;;;;;4919465;28;113877;-72
2021/10/31 05:42:44;;;;;;;;;30.00;27.33;;;;;;;;4917744;28;112051;-70
2021/10/31 05:45:10;;;;;;;;;20.33;20.00;;;;;;;;4919737;28;112165;-71
2021/10/31 05:47:39;;;;;;;;;29.33;25.33;;;;;;;;4918516;28;112820;-74
2021/10/31 05:50:05;;;;;;;;;32.67;27.00;;;;;;;;4919888;28;112027;-74
2021/10/31 05:52:31;;;;;;;;;26.33;22.67;;;;;;;;4923605;28;111941;-72
2021/10/31 05:54:56;;;;;;;;;28.33;27.00;;;;;;;;4920040;28;111975;-72
2021/10/31 05:57:21;;;;;;;;;26.67;26.33;;;;;;;;4920582;28;111991;-71
2021/10/31 05:59:47;;;;;;;;;30.00;23.50;;;;;;;;4919671;28;112565;-71
2021/10/31 06:02:12;;;;;;;;;26.00;23.00;;;;;;;;4920263;28;111676;-72
2021/10/31 06:04:39;;;;;;;;;21.67;21.67;;;;;;;;4920315;28;111909;-73
2021/10/31 06:07:05;;;;;;;;;26.00;23.00;;;;;;;;4919180;28;112961;-74
2021/10/31 06:09:30;;;;;;;;;32.00;27.67;;;;;;;;4919707;28;111774;-72
2021/10/31 06:11:55;;;;;;;;;23.33;19.67;;;;;;;;4919928;28;112285;-74
2021/10/31 06:14:21;;;;;;;;;19.33;17.33;;;;;;;;4923404;28;112463;-74
2021/10/31 06:16:46;;;;;;;;;27.67;26.67;;;;;;;;4935010;28;113877;-73
2021/10/31 06:19:11;;;;;;;;;24.00;24.00;;;;;;;;4919313;28;112563;-73
2021/10/31 06:21:37;;;;;;;;;27.00;24.00;;;;;;;;4920284;28;112260;-73
2021/10/31 06:24:02;;;;;;;;;28.67;23.00;;;;;;;;4919562;28;112047;-74
2021/10/31 06:26:27;;;;;;;;;23.00;20.00;;;;;;;;4919433;28;111961;-73
2021/10/31 06:28:53;;;;;;;;;33.67;31.67;;;;;;;;4921523;28;112073;-73
2021/10/31 06:31:18;;;;;;;;;36.67;34.67;;;;;;;;4920941;28;112000;-74
2021/10/31 06:33:43;;;;;;;;;29.00;26.00;;;;;;;;4921372;28;113020;-73
2021/10/31 06:36:09;;;;;;;;;36.00;30.00;;;;;;;;4924747;28;111789;-74
2021/10/31 06:38:34;;;;;;;;;26.33;26.33;;;;;;;;4919295;28;112384;-74
2021/10/31 06:41:00;;;;;;;;;26.00;20.67;;;;;;;;4918881;28;112312;-75
2021/10/31 06:43:25;;;;;;;;;32.67;26.67;;;;;;;;4919225;28;112531;-73
2021/10/31 06:45:51;;;;;;;;;31.33;28.67;;;;;;;;4921674;28;112473;-74
2021/10/31 06:48:16;;;;;;;;;27.00;25.67;;;;;;;;4922886;28;112033;-75
2021/10/31 06:50:42;;;;;;;;;31.00;30.67;;;;;;;;4923022;28;112435;-73
2021/10/31 06:53:07;;;;;;;;;34.33;28.00;;;;;;;;4922073;28;112450;-74
2021/10/31 06:55:33;;;;;;;;;30.33;25.00;;;;;;;;4922970;28;112117;-73
2021/10/31 06:57:59;;;;;;;;;30.00;27.00;;;;;;;;4925060;28;112270;-73
2021/10/31 07:00:24;;;;;;;;;33.67;26.33;;;;;;;;4904165;28;112379;-73
2021/10/31 07:02:49;;;;;;;;;30.67;26.33;;;;;;;;4922004;28;112316;-72
2021/10/31 07:05:15;;;;;;;;;25.67;23.33;;;;;;;;4904391;28;113859;-73
2021/10/31 07:07:40;;;;;;;;;29.33;28.33;;;;;;;;4922308;28;111894;-72
2021/10/31 07:10:06;;;;;;;;;27.33;24.67;;;;;;;;4922987;28;112147;-72
2021/10/31 07:12:31;;;;;;;;;31.00;25.33;;;;;;;;4921644;28;112306;-73
2021/10/31 07:14:56;;;;;;;;;31.67;26.33;;;;;;;;4904330;28;112273;-73
2021/10/31 07:17:21;;;;;;;;;35.00;31.67;;;;;;;;4925246;28;112171;-72
2021/10/31 07:19:47;;;;;;;;;34.67;31.00;;;;;;;;4921729;28;112039;-72
2021/10/31 07:22:12;;;;;;;;;42.67;33.33;;;;;;;;4922176;28;112182;-72
2021/10/31 07:24:38;;;;;;;;;36.00;33.33;;;;;;;;4921225;28;112359;-72
2021/10/31 07:27:03;;;;;;;;;41.33;35.00;;;;;;;;4921740;28;111943;-72
2021/10/31 07:29:28;;;;;;;;;49.00;40.00;;;;;;;;4922094;28;112165;-72
2021/10/31 07:31:54;;;;;;;;;32.67;29.67;;;;;;;;4920740;28;114547;-72
2021/10/31 07:34:24;;;;;;;;;44.00;32.33;;;;;;;;4921858;28;112931;-72
2021/10/31 07:36:50;;;;;;;;;36.00;34.00;;;;;;;;4922308;28;113628;-74
2021/10/31 07:39:15;;;;;;;;;32.00;30.00;;;;;;;;4925384;28;112241;-73
2021/10/31 07:41:40;;;;;;;;;39.00;34.75;;;;;;;;4922109;28;112035;-72
2021/10/31 07:44:06;;;;;;;;;42.00;37.00;;;;;;;;4921298;28;113693;-72
2021/10/31 07:46:33;;;;;;;;;37.75;35.25;;;;;;;;4921693;28;112038;-73
2021/10/31 07:48:59;;;;;;;;;33.75;29.50;;;;;;;;4921171;28;112805;-73
2021/10/31 07:51:24;;;;;;;;;34.00;30.00;;;;;;;;4921478;28;112354;-73
2021/10/31 07:53:50;;;;;;;;;33.75;31.00;;;;;;;;4921750;28;112183;-74
2021/10/31 07:56:17;;;;;;;;;33.50;25.25;;;;;;;;4920838;28;111977;-73
2021/10/31 07:58:44;;;;;;;;;32.50;28.50;;;;;;;;4920511;28;112692;-73
2021/10/31 08:01:10;;;;;;;;;32.75;32.00;;;;;;;;4925539;28;111938;-73
2021/10/31 08:03:35;;;;;;;;;30.00;26.00;;;;;;;;4920680;28;112607;-76
2021/10/31 08:06:01;;;;;;;;;30.50;29.50;;;;;;;;4904981;28;111911;-77
2021/10/31 08:08:27;;;;;;;;;33.25;30.25;;;;;;;;4922236;28;112319;-78
2021/10/31 08:10:52;;;;;;;;;28.25;24.75;;;;;;;;4921208;28;113889;-75
2021/10/31 08:13:19;;;;;;;;;32.50;30.00;;;;;;;;4920969;28;112158;-72
2021/10/31 08:15:44;;;;;;;;;34.25;31.00;;;;;;;;4921989;28;112009;-75
2021/10/31 08:18:09;;;;;;;;;34.00;30.00;;;;;;;;4910867;28;113325;-74
2021/10/31 08:20:35;;;;;;;;;38.50;36.00;;;;;;;;4918023;28;112126;-76
2021/10/31 08:23:00;;;;;;;;;44.75;36.50;;;;;;;;4925116;28;112386;-78
2021/10/31 08:25:25;;;;;;;;;42.25;35.75;;;;;;;;4921801;28;112153;-73
2021/10/31 08:27:51;;;;;;;;;41.25;34.50;;;;;;;;4922397;28;111950;-76
2021/10/31 08:30:16;;;;;;;;;40.00;36.00;;;;;;;;4921888;28;112405;-78
2021/10/31 08:32:43;;;;;;;;;36.25;32.75;;;;;;;;4921966;28;111716;-75
2021/10/31 08:35:09;;;;;;;;;41.25;35.75;;;;;;;;4927949;28;115196;-78
2021/10/31 08:37:34;;;;;;;;;35.25;29.25;;;;;;;;4920212;28;112444;-74
2021/10/31 08:39:59;;;;;;;;;36.00;34.50;;;;;;;;4921986;28;111985;-78
2021/10/31 08:42:24;;;;;;;;;46.50;36.00;;;;;;;;4922134;28;112089;-77
2021/10/31 08:44:50;;;;;;;;;39.00;35.75;;;;;;;;4924743;28;112464;-76
2021/10/31 08:47:16;;;;;;;;;35.25;32.50;;;;;;;;4921837;28;113001;-77
2021/10/31 08:49:41;;;;;;;;;39.25;37.00;;;;;;;;4923312;28;112364;-80
2021/10/31 08:52:07;;;;;;;;;41.75;37.75;;;;;;;;4924410;28;112266;-77
2021/10/31 08:54:36;;;;;;;;;40.50;35.50;;;;;;;;4920398;28;112040;-78
2021/10/31 08:57:02;;;;;;;;;36.75;34.00;;;;;;;;4918058;28;112416;-80
2021/10/31 08:59:27;;;;;;;;;38.25;35.25;;;;;;;;4920733;28;112781;-77
2021/10/31 09:01:53;;;;;;;;;31.25;31.00;;;;;;;;4920840;28;112107;-77
2021/10/31 09:04:18;;;;;;;;;38.50;31.00;;;;;;;;4921176;28;112339;-77
2021/10/31 09:06:43;;;;;;;;;34.50;30.75;;;;;;;;4921021;28;112404;-83
2021/10/31 09:09:11;;;;;;;;;35.75;34.50;;;;;;;;4918848;28;112415;-82
2021/10/31 09:11:36;;;;;;;;;43.00;36.00;;;;;;;;4920196;28;112936;-78
2021/10/31 09:14:01;;;;;;;;;43.75;36.50;;;;;;;;4910615;28;115381;-80
2021/10/31 09:16:28;;;;;;;;;40.00;36.00;;;;;;;;4918810;28;113710;-74
2021/10/31 09:18:53;;;;;;;;;36.50;36.00;;;;;;;;4920019;28;112472;-76
2021/10/31 09:21:23;;;;;;;;;34.50;34.50;;;;;;;;4920342;28;113095;-75
2021/10/31 09:23:48;;;;;;;;;35.00;28.25;;;;;;;;4919264;28;113753;-74
2021/10/31 09:26:13;;;;;;;;;37.50;32.25;;;;;;;;4924225;28;112258;-74
2021/10/31 09:28:39;;;;;;;;;33.50;32.00;;;;;;;;4919484;28;112578;-73
2021/10/31 09:31:04;;;;;;;;;32.00;24.00;;;;;;;;4920317;28;112023;-73
2021/10/31 09:33:29;;;;;;;;;26.75;23.00;;;;;;;;4919428;28;112493;-70
2021/10/31 09:35:57;;;;;;;;;20.25;19.50;;;;;;;;4920013;28;112394;-72
2021/10/31 09:38:26;;;;;;;;;20.25;18.50;;;;;;;;4903888;28;112395;-71
2021/10/31 09:40:51;;;;;;;;;16.50;16.50;;;;;;;;4919258;28;112222;-73
2021/10/31 09:43:17;;;;;;;;;22.25;18.75;;;;;;;;4903143;28;113154;-73
2021/10/31 09:45:42;;;;;;;;;22.50;17.75;;;;;;;;4920415;28;111842;-77
2021/10/31 09:48:12;;;;;;;;;18.00;17.50;;;;;;;;4922852;28;113025;-77
2021/10/31 09:50:41;;;;;;;;;18.50;16.25;;;;;;;;4951267;22;111964;-75
2021/10/31 09:53:07;;;;;;;;;18.75;18.75;;;;;;;;4922155;28;114548;-76
2021/10/31 09:55:32;;;;;;;;;23.25;18.75;;;;;;;;4938521;28;112429;-76
2021/10/31 09:57:59;;;;;;;;;18.25;15.25;;;;;;;;4939373;28;112447;-76
2021/10/31 10:00:35;;;;;;;;;19.00;18.00;;;;;;;;4938715;28;113329;-76
2021/10/31 10:03:16;;;;;;;;;18.50;17.50;;;;;;;;4938380;28;114453;-74
2021/10/31 10:05:41;;;;;;;;;18.00;16.75;;;;;;;;4939555;28;112786;-72
2021/10/31 10:08:17;;;;;;;;;16.75;16.50;;;;;;;;4939909;28;112297;-75
2021/10/31 10:10:45;;;;;;;;;16.00;15.50;;;;;;;;4941794;28;112425;-75
2021/10/31 10:13:20;;;;;;;;;15.50;15.50;;;;;;;;4938922;28;112419;-77
2021/10/31 10:15:46;;;;;;;;;17.75;15.00;;;;;;;;4938175;28;113572;-78
2021/10/31 10:18:27;;;;;;;;;19.50;18.50;;;;;;;;4939069;28;111905;-82
2021/10/31 10:20:52;;;;;;;;;18.50;17.00;;;;;;;;4939118;28;113068;-83
2021/10/31 10:23:19;;;;;;;;;25.25;16.00;;;;;;;;4938685;28;112543;-81
2021/10/31 10:25:44;;;;;;;;;22.25;20.00;;;;;;;;4939648;28;111712;-80
2021/10/31 10:28:25;;;;;;;;;20.00;17.50;;;;;;;;4939050;28;112341;-81
2021/10/31 10:30:51;;;;;;;;;17.00;15.50;;;;;;;;4938491;28;112783;-80
2021/10/31 10:33:20;;;;;;;;;17.75;14.50;;;;;;;;4942830;28;111814;-81
2021/10/31 10:35:47;;;;;;;;;16.75;15.25;;;;;;;;4937787;28;112603;-81
2021/10/31 10:38:16;;;;;;;;;17.00;13.00;;;;;;;;4938982;28;112233;-80
2021/10/31 10:40:41;;;;;;;;;13.25;13.00;;;;;;;;4938440;28;113458;-77
2021/10/31 10:43:06;;;;;;;;;16.25;14.00;;;;;;;;4937733;28;113914;-79
2021/10/31 10:45:32;;;;;;;;;18.00;15.25;;;;;;;;4939958;28;113154;-81
2021/10/31 10:48:03;;;;;;;;;17.50;15.50;;;;;;;;4939899;28;111966;-87
2021/10/31 10:50:32;;;;;;;;;14.75;13.00;;;;;;;;4926086;28;112520;-83
2021/10/31 10:52:57;;;;;;;;;15.25;12.75;;;;;;;;4902665;28;113015;-80
2021/10/31 10:55:34;;;;;;;;;12.25;12.25;;;;;;;;4922659;28;113267;-82
2021/10/31 10:58:08;;;;;;;;;12.50;11.50;;;;;;;;4919260;28;112140;-83
2021/10/31 11:00:36;;;;;;;;;16.75;13.50;;;;;;;;4919688;28;111875;-78
2021/10/31 11:03:05;;;;;;;;;16.25;14.00;;;;;;;;4919170;28;113515;-82
2021/10/31 11:05:40;;;;;;;;;13.50;11.25;;;;;;;;4920673;28;111684;-82
2021/10/31 11:08:09;;;;;;;;;14.00;14.00;;;;;;;;4920005;28;112227;-84
2021/10/31 11:10:34;;;;;;;;;17.75;14.25;;;;;;;;4919154;28;114384;-78
2021/10/31 11:13:00;;;;;;;;;15.00;12.50;;;;;;;;4919428;28;112708;-79
2021/10/31 11:15:28;;;;;;;;;19.00;14.50;;;;;;;;4919684;28;111851;-77
2021/10/31 11:17:54;;;;;;;;;15.75;14.00;;;;;;;;4921270;28;111883;-76
2021/10/31 11:20:22;;;;;;;;;20.75;16.50;;;;;;;;4919158;28;112041;-77
2021/10/31 11:22:53;;;;;;;;;22.00;18.00;;;;;;;;4919361;28;112735;-76
2021/10/31 11:25:19;;;;;;;;;16.75;16.75;;;;;;;;4919557;28;111998;-70
2021/10/31 11:27:45;;;;;;;;;16.50;14.75;;;;;;;;4918179;28;112110;-69
2021/10/31 11:30:12;;;;;;;;;17.25;17.00;;;;;;;;4919273;28;112396;-70
2021/10/31 11:32:38;;;;;;;;;15.00;15.00;;;;;;;;4922244;28;112134;-70
2021/10/31 11:35:04;;;;;;;;;44.50;35.25;;;;;;;;4922048;28;112068;-70
2021/10/31 11:37:32;;;;;;;;;35.75;32.50;;;;;;;;4925189;28;112908;-71
2021/10/31 11:39:58;;;;;;;;;17.75;13.75;;;;;;;;4922513;28;112468;-70
2021/10/31 11:42:25;;;;;;;;;13.75;13.75;;;;;;;;4920686;28;113753;-71
2021/10/31 11:45:02;;;;;;;;;14.50;12.25;;;;;;;;4921318;28;111946;-76
2021/10/31 11:47:30;;;;;;;;;18.00;15.75;;;;;;;;4919747;28;112072;-75
2021/10/31 11:50:02;;;;;;;;;18.25;16.75;;;;;;;;4928315;28;113824;-77
2021/10/31 11:52:43;;;;;;;;;25.50;20.75;;;;;;;;4941618;28;112090;-74
2021/10/31 11:55:35;;;;;;;;;16.50;14.25;;;;;;;;4923469;28;115045;-74
2021/10/31 11:58:07;;;;;;;;;14.25;13.50;;;;;;;;4936286;28;112693;-78
2021/10/31 12:00:33;;;;;;;;;16.00;13.00;;;;;;;;4927491;28;113016;-77
2021/10/31 12:03:01;;;;;;;;;13.00;12.00;;;;;;;;4940131;28;112332;-77
2021/10/31 12:05:37;;;;;;;;;13.00;13.00;;;;;;;;4922825;28;112110;-75
2021/10/31 12:08:06;;;;;;;;;9.75;9.75;;;;;;;;4939050;28;112088;-76
2021/10/31 12:10:37;;;;;;;;;10.50;10.00;;;;;;;;4939434;28;112574;-75
2021/10/31 12:13:22;;;;;;;;;10.50;10.00;;;;;;;;4940542;28;111967;-75
2021/10/31 12:15:56;;;;;;;;;12.00;10.00;;;;;;;;4941704;28;112505;-76
2021/10/31 12:18:40;;;;;;;;;10.50;10.00;;;;;;;;4939506;28;113706;-73
2021/10/31 12:21:16;;;;;;;;;12.00;12.00;;;;;;;;4937170;28;111877;-73
2021/10/31 12:23:52;;;;;;;;;13.00;11.25;;;;;;;;4944126;28;111953;-74
2021/10/31 12:26:18;;;;;;;;;13.00;11.75;;;;;;;;4940633;28;111839;-74
2021/10/31 12:28:44;;;;;;;;;8.25;8.25;;;;;;;;4940465;28;112045;-74
2021/10/31 12:31:23;;;;;;;;;12.00;9.25;;;;;;;;4939335;28;112459;-75
2021/10/31 12:34:08;;;;;;;;;16.25;12.00;;;;;;;;4938893;28;111768;-75
2021/10/31 12:36:35;;;;;;;;;12.50;12.25;;;;;;;;4938724;28;112355;-75
2021/10/31 12:39:00;;;;;;;;;13.00;11.25;;;;;;;;4936724;28;112509;-72
2021/10/31 12:41:26;;;;;;;;;15.25;11.00;;;;;;;;4939892;28;111923;-75
2021/10/31 12:43:57;;;;;;;;;14.00;12.00;;;;;;;;4939816;28;113548;-77
2021/10/31 12:46:26;;;;;;;;;14.00;9.75;;;;;;;;4922832;28;116187;-75
2021/10/31 12:48:53;;;;;;;;;10.00;9.25;;;;;;;;4939929;28;113040;-74
2021/10/31 12:51:31;;;;;;;;;12.25;12.00;;;;;;;;4919740;28;113780;-76
2021/10/31 12:54:00;;;;;;;;;10.25;8.50;;;;;;;;4915029;28;114067;-75
2021/10/31 12:56:32;;;;;;;;;12.50;12.00;;;;;;;;4920812;28;111936;-74
2021/10/31 12:59:11;;;;;;;;;13.25;12.25;;;;;;;;4919676;28;112485;-79
2021/10/31 13:01:36;;;;;;;;;10.25;10.25;;;;;;;;4920824;28;112506;-74
2021/10/31 18:11:30;;;;;;;;;31.00;26.50;;;;;;;;5112716;27;112333;-71
2021/10/31 18:13:55;;;;;;;;;35.75;29.75;;;;;;;;5096813;27;112468;-72
2021/10/31 18:16:21;;;;;;;;;26.25;25.25;;;;;;;;5094977;27;112130;-76
2021/10/31 18:18:46;;;;;;;;;33.50;31.75;;;;;;;;5088212;27;111996;-75
2021/10/31 18:21:11;;;;;;;;;37.00;32.75;;;;;;;;5091967;27;112527;-77
2021/10/31 18:23:37;;;;;;;;;43.25;37.00;;;;;;;;5081343;27;111851;-75
2021/10/31 18:26:02;;;;;;;;;57.75;45.50;;;;;;;;5075821;27;114552;-76
2021/10/31 18:28:28;;;;;;;;;43.50;38.00;;;;;;;;5088634;27;112341;-74
2021/10/31 18:30:54;;;;;;;;;52.75;45.00;;;;;;;;5058965;27;112377;-73
2021/10/31 18:33:20;;;;;;;;;58.00;45.50;;;;;;;;5053025;27;113792;-73
2021/10/31 18:35:45;;;;;;;;;52.25;40.00;;;;;;;;5051092;27;112412;-72
2021/10/31 18:38:11;;;;;;;;;50.50;41.00;;;;;;;;5055387;27;111812;-70
2021/10/31 18:40:37;;;;;;;;;53.50;42.75;;;;;;;;5054709;27;112926;-75
2021/10/31 18:43:02;;;;;;;;;48.50;39.00;;;;;;;;5055908;27;111794;-72
2021/10/31 18:45:28;;;;;;;;;32.50;31.25;;;;;;;;5057032;27;112095;-70
2021/10/31 18:47:54;;;;;;;;;38.50;34.25;;;;;;;;5056294;27;113873;-71
2021/10/31 18:50:21;;;;;;;;;40.25;35.25;;;;;;;;5047597;27;112478;-71
2021/10/31 18:52:47;;;;;;;;;46.50;39.00;;;;;;;;5039372;27;111910;-71
2021/10/31 18:55:13;;;;;;;;;43.50;38.00;;;;;;;;5036530;27;111916;-71
2021/10/31 18:57:39;;;;;;;;;46.50;40.75;;;;;;;;5042174;27;111887;-72
2021/10/31 19:00:09;;;;;;;;;47.25;39.75;;;;;;;;5052493;27;115958;-73
2021/10/31 19:02:35;;;;;;;;;42.00;38.75;;;;;;;;5053298;27;111901;-74
2021/10/31 19:05:01;;;;;;;;;45.25;39.25;;;;;;;;5054049;27;112921;-72
2021/10/31 19:07:26;;;;;;;;;44.50;38.00;;;;;;;;5054333;27;113083;-72
2021/10/31 19:09:51;;;;;;;;;43.25;37.25;;;;;;;;5051626;27;112844;-75
2021/10/31 19:12:17;;;;;;;;;42.75;35.75;;;;;;;;5055086;27;112391;-73